Afton, Tennessee
Current Conditions -  °F | °C
As of 2:53 AM on Friday 24 Oct 2014 (Local Time) from KTRI Reporting Station
Haze Haze  
Wind Chill: 38°   Ceiling: Unl
Heat Index: 38°   Visibility: 5mi
Dew Point: 37°   Wind: 3mph
Humidity: 97%   Direction: 20°NNE
Pressure: 30.13"   Gusts: NA
Location:  36.19°N, 82.74°W
Report Text: KTRI 240653Z 02003KT 5SM BR FEW250 03/03 A3013 RMK AO2 SLP193 T00330028
Loading
Personal Weather Stations






























Interactive Weather Map
Tropical Storm Tracking
New forecast layout! Learn more

10-Day Weather Forecast

Advertisements
Track Severe Weather on mobile